createdAt,value
2023-04-29T00:01:32.129Z,16.51
2023-04-29T00:03:59.532Z,16.50
2023-04-29T00:06:26.870Z,16.47
2023-04-29T00:08:53.913Z,16.46
2023-04-29T00:11:21.448Z,16.44
2023-04-29T00:13:48.506Z,16.42
2023-04-29T00:16:15.570Z,16.38
2023-04-29T00:18:42.960Z,16.39
2023-04-29T00:21:09.989Z,16.36
2023-04-29T00:23:36.987Z,16.36
2023-04-29T00:26:04.273Z,16.34
2023-04-29T00:28:31.308Z,16.34
2023-04-29T00:30:58.433Z,16.32
2023-04-29T00:33:25.887Z,16.29
2023-04-29T00:35:53.318Z,16.29
2023-04-29T00:38:21.653Z,16.28
2023-04-29T00:40:48.997Z,16.28
2023-04-29T00:43:16.027Z,16.23
2023-04-29T00:45:43.310Z,16.24
2023-04-29T00:48:10.444Z,16.19
2023-04-29T00:50:37.610Z,16.20
2023-04-29T00:53:05.236Z,16.19
2023-04-29T00:55:34.175Z,16.19
2023-04-29T00:58:03.076Z,16.16
2023-04-29T01:00:31.224Z,16.16
2023-04-29T01:03:00.129Z,16.12
2023-04-29T01:05:27.735Z,16.13
2023-04-29T01:08:32.173Z,16.12
2023-04-29T01:11:07.652Z,16.10
2023-04-29T01:13:50.336Z,16.10
2023-04-29T01:16:35.476Z,16.08
2023-04-29T01:19:13.294Z,16.06
2023-04-29T01:21:49.191Z,16.03
2023-04-29T01:24:16.675Z,16.04
2023-04-29T01:26:57.071Z,16.02
2023-04-29T01:29:47.793Z,15.99
2023-04-29T01:32:19.316Z,15.99
2023-04-29T01:35:05.932Z,15.99
2023-04-29T01:37:39.489Z,16.01
2023-04-29T01:40:33.688Z,15.99
2023-04-29T01:43:03.635Z,15.97
2023-04-29T01:45:34.623Z,15.96
2023-04-29T01:48:03.038Z,15.92
2023-04-29T01:50:30.778Z,15.94
2023-04-29T01:52:57.708Z,15.94
2023-04-29T01:55:24.711Z,15.94
2023-04-29T01:57:51.663Z,15.92
2023-04-29T02:00:18.759Z,15.91
2023-04-29T02:02:45.752Z,15.91
2023-04-29T02:05:12.768Z,15.93
2023-04-29T02:07:40.277Z,15.93
2023-04-29T02:10:08.138Z,15.92
2023-04-29T02:12:35.089Z,15.89
2023-04-29T02:15:02.479Z,15.91
2023-04-29T02:17:29.451Z,15.90
2023-04-29T02:19:56.440Z,15.89
2023-04-29T02:22:23.379Z,15.89
2023-04-29T02:24:50.305Z,15.88
2023-04-29T02:27:17.459Z,15.82
2023-04-29T02:29:44.444Z,15.87
2023-04-29T02:32:11.970Z,15.86
2023-04-29T02:34:39.072Z,15.85
2023-04-29T02:37:06.619Z,15.85
2023-04-29T02:39:33.577Z,15.85
2023-04-29T02:42:00.517Z,15.84
2023-04-29T02:44:27.490Z,15.84
2023-04-29T02:46:54.436Z,15.85
2023-04-29T02:49:21.813Z,15.84
2023-04-29T02:51:50.241Z,15.86
2023-04-29T02:54:17.806Z,15.86
2023-04-29T02:56:44.674Z,15.85
2023-04-29T02:59:11.626Z,15.86
2023-04-29T03:01:39.214Z,15.84
2023-04-29T03:04:07.124Z,15.86
2023-04-29T03:06:34.307Z,15.85
2023-04-29T03:09:01.233Z,15.86
2023-04-29T03:11:28.445Z,15.84
2023-04-29T03:13:55.739Z,15.82
2023-04-29T03:16:23.505Z,15.81
2023-04-29T03:18:50.500Z,15.79
2023-04-29T03:21:17.988Z,15.79
2023-04-29T03:23:45.154Z,15.80
2023-04-29T03:26:12.531Z,15.76
2023-04-29T03:28:39.443Z,15.76
2023-04-29T03:31:06.451Z,15.77
2023-04-29T03:33:33.726Z,15.75
2023-04-29T03:36:00.654Z,15.77
2023-04-29T03:38:27.583Z,15.77
2023-04-29T03:40:54.623Z,15.78
2023-04-29T03:43:21.603Z,15.79
2023-04-29T03:45:48.641Z,15.80
2023-04-29T03:48:15.694Z,15.80
2023-04-29T03:50:42.753Z,15.80
2023-04-29T03:53:09.849Z,15.77
2023-04-29T03:55:36.758Z,15.81
2023-04-29T03:58:04.024Z,15.79
2023-04-29T04:00:31.752Z,15.80
2023-04-29T04:02:59.472Z,15.81
2023-04-29T04:05:27.247Z,15.81
2023-04-29T04:07:54.670Z,15.81
2023-04-29T04:10:21.559Z,15.79
2023-04-29T04:12:48.652Z,15.78
2023-04-29T04:15:17.357Z,15.76
2023-04-29T04:17:44.313Z,15.75
2023-04-29T04:20:11.906Z,15.79
2023-04-29T04:22:38.868Z,15.78
2023-04-29T04:25:06.529Z,15.79
2023-04-29T04:27:33.471Z,15.79
2023-04-29T04:30:00.389Z,15.78
2023-04-29T04:32:27.340Z,15.80
2023-04-29T04:34:54.332Z,15.79
2023-04-29T04:37:21.314Z,15.78
2023-04-29T04:39:48.415Z,15.78
2023-04-29T04:42:15.350Z,15.79
2023-04-29T04:44:42.292Z,15.78
2023-04-29T04:47:09.311Z,15.76
2023-04-29T04:49:36.191Z,15.77
2023-04-29T04:52:03.108Z,15.78
2023-04-29T04:54:30.075Z,15.80
2023-04-29T04:56:56.960Z,15.36
2023-04-29T04:59:23.934Z,15.29
2023-04-29T05:01:51.077Z,15.45
2023-04-29T05:04:18.174Z,15.57
2023-04-29T05:06:47.065Z,15.65
2023-04-29T05:09:14.004Z,15.69
2023-04-29T05:11:42.261Z,15.71
2023-04-29T05:14:09.164Z,15.72
2023-04-29T05:16:36.508Z,15.73
2023-04-29T05:19:03.514Z,15.62
2023-04-29T05:21:31.972Z,15.19
2023-04-29T05:23:58.904Z,14.92
2023-04-29T05:26:25.832Z,14.71
2023-04-29T05:28:52.757Z,14.76
2023-04-29T05:31:19.710Z,14.88
2023-04-29T05:33:46.862Z,15.05
2023-04-29T05:36:13.837Z,15.13
2023-04-29T05:38:41.064Z,15.17
2023-04-29T05:41:08.073Z,15.21
2023-04-29T05:43:36.233Z,15.22
2023-04-29T05:46:04.016Z,15.25
2023-04-29T05:48:31.036Z,15.22
2023-04-29T05:50:58.251Z,15.26
2023-04-29T05:53:25.238Z,15.30
2023-04-29T05:55:52.282Z,15.34
2023-04-29T05:58:19.230Z,15.36
2023-04-29T06:00:46.280Z,15.32
2023-04-29T06:03:13.453Z,15.34
2023-04-29T06:05:40.926Z,15.31
2023-04-29T06:08:08.347Z,15.36
2023-04-29T06:10:37.425Z,15.34
2023-04-29T06:13:04.895Z,15.36
2023-04-29T06:15:31.998Z,15.36
2023-04-29T06:17:59.117Z,15.35
2023-04-29T06:20:26.133Z,15.36
2023-04-29T06:22:53.168Z,15.33
2023-04-29T06:25:20.277Z,15.37
2023-04-29T06:27:47.393Z,15.37
2023-04-29T06:30:14.475Z,15.35
2023-04-29T06:32:41.617Z,15.38
2023-04-29T06:35:09.145Z,15.40
2023-04-29T06:37:37.926Z,15.38
2023-04-29T06:40:06.162Z,15.32
2023-04-29T06:42:34.352Z,15.30
2023-04-29T06:45:01.625Z,15.27
2023-04-29T06:47:29.076Z,15.24
2023-04-29T06:49:56.170Z,15.24
2023-04-29T06:52:23.141Z,15.34
2023-04-29T06:54:50.090Z,15.39
2023-04-29T06:57:17.664Z,15.39
2023-04-29T06:59:44.869Z,15.43
2023-04-29T07:02:11.982Z,15.49
2023-04-29T07:04:39.394Z,15.55
2023-04-29T07:07:07.369Z,15.60
2023-04-29T07:09:34.391Z,15.63
2023-04-29T07:12:03.051Z,15.66
2023-04-29T07:14:30.073Z,15.65
2023-04-29T07:16:57.141Z,15.43
2023-04-29T07:19:24.470Z,15.39
2023-04-29T07:21:51.511Z,15.52
2023-04-29T07:24:18.571Z,15.63
2023-04-29T07:26:45.894Z,15.71
2023-04-29T07:29:12.981Z,15.77
2023-04-29T07:31:40.057Z,15.83
2023-04-29T07:34:07.155Z,15.87
2023-04-29T07:36:34.196Z,15.92
2023-04-29T07:39:05.332Z,15.93
2023-04-29T07:41:32.358Z,15.96
2023-04-29T07:43:59.442Z,15.99
2023-04-29T07:46:26.447Z,16.01
2023-04-29T07:48:53.527Z,16.03
2023-04-29T07:51:20.585Z,16.06
2023-04-29T07:53:47.625Z,16.08
2023-04-29T07:56:14.795Z,16.07
2023-04-29T07:58:41.902Z,16.06
2023-04-29T08:01:12.648Z,16.06
2023-04-29T08:03:41.969Z,16.06
2023-04-29T08:06:09.655Z,16.07
2023-04-29T08:08:36.956Z,16.07
2023-04-29T08:11:04.742Z,16.08
2023-04-29T08:13:31.832Z,16.09
2023-04-29T08:15:58.839Z,16.10
2023-04-29T08:18:26.133Z,16.10
2023-04-29T08:20:53.998Z,16.12
2023-04-29T08:23:21.480Z,16.14
2023-04-29T08:25:48.657Z,16.14
2023-04-29T08:28:15.718Z,16.14
2023-04-29T08:30:42.999Z,16.11
2023-04-29T08:33:10.578Z,16.14
2023-04-29T08:35:38.129Z,16.14
2023-04-29T08:38:06.915Z,16.19
2023-04-29T08:40:42.668Z,16.22
2023-04-29T08:43:11.115Z,16.22
2023-04-29T08:45:38.329Z,16.24
2023-04-29T08:48:07.154Z,16.22
2023-04-29T08:50:42.088Z,16.08
2023-04-29T08:53:10.093Z,16.10
2023-04-29T08:55:47.242Z,16.08
2023-04-29T08:58:15.881Z,16.06
2023-04-29T09:00:44.332Z,16.07
2023-04-29T09:03:47.712Z,16.00
2023-04-29T09:06:15.652Z,16.03
2023-04-29T09:08:42.971Z,16.02
2023-04-29T09:11:12.464Z,16.01
2023-04-29T09:13:39.681Z,16.02
2023-04-29T09:16:12.273Z,15.94
2023-04-29T09:18:52.190Z,15.84
2023-04-29T09:21:32.609Z,15.96
2023-04-29T09:24:02.106Z,15.79
2023-04-29T09:26:43.617Z,15.65
2023-04-29T09:29:16.499Z,15.53
2023-04-29T09:31:43.674Z,15.48
2023-04-29T09:34:14.900Z,15.42
2023-04-29T09:36:51.413Z,15.36
2023-04-29T09:39:20.782Z,15.32
2023-04-29T09:41:53.917Z,15.27
2023-04-29T09:44:34.564Z,15.25
2023-04-29T09:47:04.427Z,15.21
2023-04-29T09:49:45.992Z,15.17
2023-04-29T09:52:21.209Z,15.14
2023-04-29T09:54:48.570Z,15.08
2023-04-29T09:57:16.291Z,15.08
2023-04-29T09:59:43.959Z,15.07
2023-04-29T10:02:19.066Z,15.05
2023-04-29T10:04:48.165Z,15.04
2023-04-29T10:07:17.456Z,15.01
2023-04-29T10:09:48.640Z,15.01
2023-04-29T10:12:18.950Z,14.99
2023-04-29T10:15:26.088Z,14.96
2023-04-29T10:18:03.699Z,14.94
2023-04-29T10:20:31.826Z,14.93
2023-04-29T10:23:00.449Z,14.91
2023-04-29T10:25:29.045Z,14.89
2023-04-29T10:27:56.691Z,14.89
2023-04-29T10:30:23.746Z,14.87
2023-04-29T10:32:52.958Z,14.85
2023-04-29T10:35:24.843Z,14.85
2023-04-29T10:37:53.266Z,14.84
2023-04-29T10:40:26.840Z,14.82
2023-04-29T10:42:54.829Z,14.81
2023-04-29T10:45:27.735Z,14.82
2023-04-29T10:48:07.007Z,14.79
2023-04-29T10:50:42.818Z,14.80
2023-04-29T10:53:09.833Z,14.80
2023-04-29T10:55:38.203Z,14.80
2023-04-29T10:58:06.447Z,14.78
2023-04-29T11:00:35.564Z,14.78
2023-04-29T11:03:06.492Z,14.76
2023-04-29T11:05:37.831Z,14.65
2023-04-29T11:08:24.837Z,14.74
2023-04-29T11:11:01.164Z,14.71
2023-04-29T11:13:30.887Z,14.81
2023-04-29T11:16:08.067Z,14.87
2023-04-29T11:18:37.230Z,14.92
2023-04-29T11:21:07.379Z,14.92
2023-04-29T11:23:35.658Z,14.92
2023-04-29T11:26:03.354Z,14.94
2023-04-29T11:28:34.445Z,14.80
2023-04-29T11:31:03.822Z,14.75
2023-04-29T11:33:33.495Z,14.86
2023-04-29T11:36:01.351Z,14.94
2023-04-29T11:38:29.628Z,14.95
2023-04-29T11:40:57.952Z,14.98
2023-04-29T11:43:25.692Z,14.99
2023-04-29T11:45:54.189Z,15.07
2023-04-29T11:48:25.932Z,15.13
2023-04-29T11:50:55.579Z,15.15
2023-04-29T11:53:25.600Z,15.19
2023-04-29T11:55:56.045Z,15.26
2023-04-29T11:58:24.404Z,15.30
2023-04-29T12:00:54.889Z,15.36
2023-04-29T12:03:22.608Z,15.40
2023-04-29T12:05:57.774Z,15.49
2023-04-29T12:08:29.255Z,15.59
2023-04-29T12:10:58.176Z,15.70
2023-04-29T12:13:28.138Z,15.77
2023-04-29T12:15:56.667Z,15.86
2023-04-29T12:18:24.208Z,15.92
2023-04-29T12:20:56.371Z,16.01
2023-04-29T12:23:25.037Z,16.07
2023-04-29T12:25:59.734Z,16.15
2023-04-29T12:28:27.661Z,16.23
2023-04-29T12:30:57.050Z,16.31
2023-04-29T12:33:27.314Z,16.36
2023-04-29T12:35:59.827Z,16.43
2023-04-29T12:38:33.199Z,16.56
2023-04-29T12:41:02.776Z,16.58
2023-04-29T12:43:31.621Z,16.61
2023-04-29T12:46:06.446Z,16.67
2023-04-29T12:48:35.650Z,16.74
2023-04-29T12:51:03.360Z,16.73
2023-04-29T12:53:31.356Z,16.72
2023-04-29T12:55:58.944Z,16.75
2023-04-29T12:58:30.735Z,16.73
2023-04-29T13:01:00.087Z,16.81
2023-04-29T13:03:29.240Z,16.86
2023-04-29T13:05:58.601Z,16.90
2023-04-29T13:08:26.518Z,16.93
2023-04-29T13:10:54.216Z,17.00
2023-04-29T13:13:22.179Z,17.13
2023-04-29T13:15:49.918Z,17.24
2023-04-29T13:18:17.394Z,17.31
2023-04-29T13:20:44.895Z,17.34
2023-04-29T13:23:14.921Z,17.42
2023-04-29T13:25:42.034Z,17.44
2023-04-29T13:28:09.058Z,17.45
2023-04-29T13:30:36.555Z,17.48
2023-04-29T13:33:09.651Z,17.50
2023-04-29T13:35:40.605Z,17.55
2023-04-29T13:38:08.592Z,17.62
2023-04-29T13:40:39.474Z,17.64
2023-04-29T13:43:14.546Z,17.66
2023-04-29T13:45:48.167Z,17.66
2023-04-29T13:48:25.986Z,17.71
2023-04-29T13:54:17.510Z,17.64
2023-04-29T14:03:50.494Z,17.64
2023-04-29T14:06:17.653Z,17.67
2023-04-29T14:08:44.965Z,17.68
2023-04-29T14:11:12.057Z,17.67
2023-04-29T14:13:39.067Z,17.65
2023-04-29T14:16:07.391Z,17.65
2023-04-29T14:18:34.430Z,17.70
2023-04-29T14:21:01.472Z,17.72
2023-04-29T14:23:28.486Z,17.66
2023-04-29T14:26:06.299Z,17.67
2023-04-29T14:28:42.611Z,17.66
2023-04-29T14:31:09.734Z,17.62
2023-04-29T14:33:37.989Z,17.56
2023-04-29T14:36:05.833Z,17.58
2023-04-29T14:38:32.913Z,17.59
2023-04-29T14:41:00.113Z,17.54
2023-04-29T14:43:28.213Z,17.45
2023-04-29T14:45:56.002Z,17.45
2023-04-29T14:48:23.638Z,17.48
2023-04-29T14:50:50.915Z,17.53
2023-04-29T14:53:20.126Z,17.54
2023-04-29T14:55:47.863Z,17.60
2023-04-29T14:58:15.221Z,17.62
2023-04-29T15:00:42.599Z,17.56
2023-04-29T15:03:10.793Z,17.51
2023-04-29T15:05:38.204Z,17.46
2023-04-29T15:08:05.878Z,17.37
2023-04-29T15:10:33.390Z,17.26
2023-04-29T15:13:02.522Z,17.13
2023-04-29T15:15:29.730Z,17.02
2023-04-29T15:17:58.702Z,16.96
2023-04-29T15:20:26.011Z,16.92
2023-04-29T15:22:53.092Z,17.00
2023-04-29T15:25:20.120Z,16.96
2023-04-29T15:27:48.066Z,16.87
2023-04-29T15:30:15.348Z,16.87
2023-04-29T15:32:42.815Z,16.90
2023-04-29T15:35:14.754Z,16.88
2023-04-29T15:37:42.028Z,16.93
2023-04-29T15:40:09.865Z,16.93
2023-04-29T15:42:36.943Z,16.92
2023-04-29T15:45:05.248Z,16.89
2023-04-29T15:47:32.489Z,16.90
2023-04-29T15:49:59.626Z,16.89
2023-04-29T15:52:26.863Z,16.87
2023-04-29T15:54:54.255Z,16.91
2023-04-29T15:57:21.649Z,16.92
2023-04-29T15:59:49.035Z,16.96
2023-04-29T16:02:16.363Z,17.05
2023-04-29T16:04:43.718Z,17.08
2023-04-29T16:07:10.986Z,17.14
2023-04-29T16:09:38.564Z,17.16
2023-04-29T16:12:05.833Z,17.19
2023-04-29T16:14:33.155Z,17.25
2023-04-29T16:17:01.107Z,17.10
2023-04-29T16:19:28.535Z,16.98
2023-04-29T16:21:55.767Z,16.89
2023-04-29T16:24:23.718Z,16.94
2023-04-29T16:26:51.160Z,17.00
2023-04-29T16:29:19.006Z,17.03
2023-04-29T16:31:46.177Z,17.05
2023-04-29T16:34:14.009Z,17.08
2023-04-29T16:36:41.234Z,17.15
2023-04-29T16:39:09.064Z,17.23
2023-04-29T16:41:37.961Z,17.34
2023-04-29T16:44:05.227Z,17.18
2023-04-29T16:46:33.139Z,16.97
2023-04-29T16:49:00.715Z,16.85
2023-04-29T16:51:29.661Z,16.73
2023-04-29T16:53:57.310Z,16.72
2023-04-29T16:56:24.682Z,16.72
2023-04-29T16:58:52.420Z,17.01
2023-04-29T17:01:20.027Z,17.22
2023-04-29T17:03:50.947Z,17.37
2023-04-29T17:06:18.320Z,17.45
2023-04-29T17:08:46.824Z,17.52
2023-04-29T17:11:15.405Z,17.58
2023-04-29T17:13:45.438Z,17.63
2023-04-29T17:16:14.411Z,17.69
2023-04-29T17:18:41.885Z,17.73
2023-04-29T17:21:09.468Z,17.74
2023-04-29T17:23:38.100Z,17.77
2023-04-29T17:26:05.598Z,17.78
2023-04-29T17:28:33.498Z,17.90
2023-04-29T17:31:01.709Z,17.92
2023-04-29T17:33:36.271Z,17.90
2023-04-29T17:36:04.803Z,17.96
2023-04-29T17:38:35.462Z,17.97
2023-04-29T17:41:03.242Z,17.99
2023-04-29T17:43:32.839Z,18.02
2023-04-29T17:46:00.091Z,18.04
2023-04-29T17:48:27.986Z,18.06
2023-04-29T17:50:55.069Z,18.08
2023-04-29T17:53:22.285Z,18.10
2023-04-29T17:55:49.333Z,18.10
2023-04-29T17:58:16.556Z,18.12
2023-04-29T18:00:43.804Z,18.11
2023-04-29T18:03:11.076Z,18.10
2023-04-29T18:05:38.489Z,18.04
2023-04-29T18:08:06.056Z,17.99
2023-04-29T18:10:33.135Z,17.96
2023-04-29T18:13:00.297Z,17.98
2023-04-29T18:15:27.503Z,17.99
2023-04-29T18:21:28.944Z,18.06
2023-04-29T18:23:57.067Z,18.09
2023-04-29T18:26:24.549Z,18.10
2023-04-29T18:28:51.819Z,18.11
2023-04-29T18:31:20.497Z,18.11
2023-04-29T18:33:47.586Z,18.10
2023-04-29T18:36:14.836Z,18.12
2023-04-29T18:38:43.745Z,18.17
2023-04-29T18:41:12.307Z,18.16
2023-04-29T18:43:39.726Z,18.14
2023-04-29T18:46:07.122Z,18.13
2023-04-29T18:48:36.155Z,18.13
2023-04-29T18:51:04.968Z,18.05
2023-04-29T18:53:32.462Z,17.96
2023-04-29T18:55:59.699Z,17.90
2023-04-29T18:58:28.026Z,17.88
2023-04-29T19:00:55.686Z,17.86
2023-04-29T19:03:22.728Z,17.89
2023-04-29T19:05:50.242Z,17.94
2023-04-29T19:08:17.727Z,17.92
2023-04-29T19:10:47.155Z,17.97
2023-04-29T19:13:14.407Z,18.03
2023-04-29T19:15:41.656Z,18.10
2023-04-29T19:18:09.250Z,18.15
2023-04-29T19:20:36.652Z,18.26
2023-04-29T19:23:03.972Z,18.32
2023-04-29T19:25:32.749Z,18.39
2023-04-29T19:28:00.144Z,18.40
2023-04-29T19:30:27.376Z,18.38
2023-04-29T19:32:55.482Z,18.37
2023-04-29T19:35:23.333Z,18.43
2023-04-29T19:37:51.023Z,18.49
2023-04-29T19:40:18.464Z,18.45
2023-04-29T19:42:46.274Z,18.48
2023-04-29T19:45:13.441Z,18.55
2023-04-29T19:47:43.548Z,18.58
2023-04-29T19:50:10.992Z,18.56
2023-04-29T19:52:38.580Z,18.58
2023-04-29T19:55:07.897Z,18.62
2023-04-29T19:57:37.114Z,18.68
2023-04-29T20:00:08.845Z,18.69
2023-04-29T20:02:36.218Z,18.69
2023-04-29T20:05:04.118Z,18.66
2023-04-29T20:07:31.623Z,18.63
2023-04-29T20:09:59.093Z,18.34
2023-04-29T20:12:28.026Z,18.46
2023-04-29T20:14:56.774Z,18.57
2023-04-29T20:17:26.968Z,18.64
2023-04-29T20:19:55.212Z,18.65
2023-04-29T20:22:24.925Z,18.74
2023-04-29T20:24:52.906Z,18.76
2023-04-29T20:27:20.491Z,18.80
2023-04-29T20:29:48.341Z,18.84
2023-04-29T20:32:15.680Z,18.90
2023-04-29T20:34:43.453Z,18.91
2023-04-29T20:37:11.058Z,18.90
2023-04-29T20:39:40.197Z,18.89
2023-04-29T20:42:07.616Z,18.92
2023-04-29T20:44:35.672Z,18.87
2023-04-29T20:47:04.518Z,18.89
2023-04-29T20:49:32.682Z,18.91
2023-04-29T20:52:00.760Z,18.93
2023-04-29T20:54:28.435Z,18.91
2023-04-29T20:56:56.775Z,18.88
2023-04-29T20:59:27.323Z,18.89
2023-04-29T21:01:54.980Z,18.88
2023-04-29T21:04:22.530Z,18.89
2023-04-29T21:06:53.066Z,18.89
2023-04-29T21:09:20.965Z,18.86
2023-04-29T21:11:48.821Z,18.83
2023-04-29T21:14:16.118Z,18.81
2023-04-29T21:16:43.386Z,18.81
2023-04-29T21:19:10.521Z,18.80
2023-04-29T21:21:37.989Z,18.74
2023-04-29T21:24:05.521Z,18.74
2023-04-29T21:26:32.808Z,18.73
2023-04-29T21:28:59.963Z,18.55
2023-04-29T21:31:27.171Z,18.21
2023-04-29T21:33:54.333Z,18.00
2023-04-29T21:36:21.425Z,17.99
2023-04-29T21:38:49.317Z,17.93
2023-04-29T21:41:23.788Z,17.90
2023-04-29T21:43:51.645Z,17.86
2023-04-29T21:46:20.077Z,17.80
2023-04-29T21:48:47.816Z,17.75
2023-04-29T21:51:15.184Z,17.69
2023-04-29T21:53:43.207Z,17.68
2023-04-29T21:56:11.093Z,17.61
2023-04-29T21:58:38.241Z,17.55
2023-04-29T22:01:25.706Z,17.51
2023-04-29T22:03:57.059Z,17.44
2023-04-29T22:06:25.142Z,17.39
2023-04-29T22:08:52.307Z,17.36
2023-04-29T22:11:22.130Z,17.33
2023-04-29T22:13:49.397Z,17.29
2023-04-29T22:16:17.009Z,17.25
2023-04-29T22:18:44.028Z,17.20
2023-04-29T22:21:11.463Z,17.19
2023-04-29T22:23:38.599Z,17.17
2023-04-29T22:26:05.830Z,17.12
2023-04-29T22:28:32.883Z,17.09
2023-04-29T22:31:00.087Z,17.04
2023-04-29T22:33:27.308Z,17.00
2023-04-29T22:35:54.405Z,16.95
2023-04-29T22:38:21.673Z,16.92
2023-04-29T22:40:52.595Z,16.89
2023-04-29T22:43:19.789Z,16.86
2023-04-29T22:45:54.395Z,16.85
2023-04-29T22:48:22.017Z,16.82
2023-04-29T22:50:57.380Z,16.78
2023-04-29T22:53:24.552Z,16.74
2023-04-29T22:55:53.451Z,16.74
2023-04-29T22:58:21.275Z,16.70
2023-04-29T23:00:53.908Z,16.67
2023-04-29T23:03:21.077Z,16.62
2023-04-29T23:05:48.351Z,16.59
2023-04-29T23:08:15.575Z,16.55
2023-04-29T23:10:48.191Z,16.52
2023-04-29T23:13:15.269Z,16.51
2023-04-29T23:15:42.566Z,16.47
2023-04-29T23:18:09.676Z,16.41
2023-04-29T23:20:36.658Z,16.38
2023-04-29T23:23:04.091Z,16.39
2023-04-29T23:25:31.274Z,16.40
2023-04-29T23:27:58.266Z,16.34
2023-04-29T23:30:25.154Z,16.32
2023-04-29T23:32:52.391Z,16.29
2023-04-29T23:35:19.479Z,16.28
2023-04-29T23:37:46.549Z,16.25
2023-04-29T23:40:16.423Z,16.23
2023-04-29T23:42:43.350Z,16.19
2023-04-29T23:45:10.703Z,16.15
2023-04-29T23:47:37.754Z,16.15
2023-04-29T23:50:05.233Z,16.13
2023-04-29T23:52:32.249Z,16.10
2023-04-29T23:54:59.272Z,16.10
2023-04-29T23:57:26.254Z,16.10
2023-04-29T23:59:53.657Z,16.06
